N5817F KBUR-KAVX
Flight info
| Callsign | N5817F |
|---|---|
| Flight time | 0h 40m |
| Altitude | VFR/055 |
| Route | |
| Aircraft | C152/L-DOV/C |
Departure
| Time | 2026-04-27 21:44 |
|---|---|
| Airport | Hollywood Burbank/Bob Hope Airport (KBUR) |
Arrival
| Time | 2026-04-27 22:24 |
|---|---|
| Airport | Catalina Airport (KAVX) |
| Time | Latitude | Longitude | Altitude | Speed | Heading |
|---|---|---|---|---|---|
| 2026-04-27 21:36 | 34.20241 | -118.35943 | 707 ft | 0 kts | 256° |
| 2026-04-27 21:38 | 34.20255 | -118.35957 | 706 ft | 6 kts | 14° |
| 2026-04-27 21:38 | 34.20301 | -118.35910 | 710 ft | 12 kts | 3° |
| 2026-04-27 21:38 | 34.20391 | -118.35928 | 714 ft | 14 kts | 345° |
| 2026-04-27 21:38 | 34.20489 | -118.35955 | 722 ft | 15 kts | 346° |
| 2026-04-27 21:39 | 34.20591 | -118.35983 | 729 ft | 15 kts | 345° |
| 2026-04-27 21:39 | 34.20690 | -118.36010 | 737 ft | 15 kts | 348° |
| 2026-04-27 21:39 | 34.20790 | -118.36037 | 743 ft | 15 kts | 346° |
| 2026-04-27 21:39 | 34.20889 | -118.36064 | 750 ft | 14 kts | 347° |
| 2026-04-27 21:40 | 34.20978 | -118.36088 | 758 ft | 12 kts | 347° |
| 2026-04-27 21:40 | 34.21063 | -118.36112 | 764 ft | 13 kts | 346° |
| 2026-04-27 21:40 | 34.21155 | -118.36137 | 768 ft | 10 kts | 348° |
| 2026-04-27 21:40 | 34.21200 | -118.36130 | 769 ft | 0 kts | 37° |
| 2026-04-27 21:42 | 34.21217 | -118.36092 | 769 ft | 12 kts | 74° |
| 2026-04-27 21:42 | 34.21142 | -118.36022 | 766 ft | 31 kts | 165° |
| 2026-04-27 21:42 | 34.20822 | -118.35933 | 747 ft | 57 kts | 169° |
| 2026-04-27 21:43 | 34.20440 | -118.35816 | 793 ft | 57 kts | 171° |
| 2026-04-27 21:43 | 34.20030 | -118.35696 | 814 ft | 70 kts | 175° |
| 2026-04-27 21:43 | 34.19509 | -118.35573 | 939 ft | 82 kts | 175° |
| 2026-04-27 21:43 | 34.18934 | -118.35492 | 1147 ft | 81 kts | 187° |
| 2026-04-27 21:44 | 34.18373 | -118.35635 | 1312 ft | 82 kts | 196° |
| 2026-04-27 21:44 | 34.17835 | -118.35783 | 1513 ft | 79 kts | 202° |
| 2026-04-27 21:44 | 34.17371 | -118.36136 | 1709 ft | 80 kts | 211° |
| 2026-04-27 21:44 | 34.16890 | -118.36471 | 1885 ft | 83 kts | 211° |
| 2026-04-27 21:45 | 34.16397 | -118.36833 | 2076 ft | 81 kts | 212° |
| 2026-04-27 21:45 | 34.15960 | -118.37127 | 2413 ft | 63 kts | 208° |
| 2026-04-27 21:45 | 34.15577 | -118.37367 | 2616 ft | 60 kts | 200° |
| 2026-04-27 21:45 | 34.15181 | -118.37489 | 2798 ft | 62 kts | 199° |
| 2026-04-27 21:46 | 34.14727 | -118.37651 | 2947 ft | 70 kts | 199° |
| 2026-04-27 21:46 | 34.14265 | -118.37779 | 3103 ft | 73 kts | 176° |
| 2026-04-27 21:46 | 34.13789 | -118.37532 | 3261 ft | 69 kts | 176° |
| 2026-04-27 21:46 | 34.13322 | -118.37671 | 3391 ft | 77 kts | 197° |
| 2026-04-27 21:47 | 34.12794 | -118.37839 | 3535 ft | 81 kts | 197° |
| 2026-04-27 21:47 | 34.12227 | -118.37981 | 3703 ft | 85 kts | 191° |
| 2026-04-27 21:47 | 34.11623 | -118.38099 | 3861 ft | 90 kts | 190° |
| 2026-04-27 21:47 | 34.11012 | -118.38223 | 4005 ft | 87 kts | 191° |
| 2026-04-27 21:48 | 34.10424 | -118.38345 | 4166 ft | 87 kts | 192° |
| 2026-04-27 21:48 | 34.09824 | -118.38482 | 4329 ft | 87 kts | 199° |
| 2026-04-27 21:48 | 34.09549 | -118.39049 | 4470 ft | 87 kts | 278° |
| 2026-04-27 21:48 | 34.09735 | -118.39743 | 4633 ft | 88 kts | 294° |
| 2026-04-27 21:49 | 34.09976 | -118.40416 | 4790 ft | 87 kts | 292° |
| 2026-04-27 21:49 | 34.10208 | -118.41086 | 4949 ft | 86 kts | 292° |
| 2026-04-27 21:49 | 34.10420 | -118.41768 | 5070 ft | 88 kts | 277° |
| 2026-04-27 21:49 | 34.10403 | -118.42505 | 5201 ft | 89 kts | 274° |
| 2026-04-27 21:50 | 34.10421 | -118.43252 | 5333 ft | 90 kts | 272° |
| 2026-04-27 21:50 | 34.10432 | -118.44006 | 5460 ft | 90 kts | 272° |
| 2026-04-27 21:50 | 34.10436 | -118.44758 | 5586 ft | 89 kts | 272° |
| 2026-04-27 21:50 | 34.10439 | -118.45521 | 5649 ft | 96 kts | 273° |
| 2026-04-27 21:51 | 34.10441 | -118.46357 | 5638 ft | 102 kts | 272° |
| 2026-04-27 21:51 | 34.10445 | -118.47221 | 5610 ft | 102 kts | 272° |
| 2026-04-27 21:51 | 34.10454 | -118.48073 | 5593 ft | 103 kts | 272° |
| 2026-04-27 21:51 | 34.10480 | -118.48926 | 5571 ft | 102 kts | 274° |
| 2026-04-27 21:52 | 34.10513 | -118.49791 | 5545 ft | 103 kts | 275° |
| 2026-04-27 21:52 | 34.10549 | -118.50668 | 5458 ft | 108 kts | 275° |
| 2026-04-27 21:52 | 34.10587 | -118.51582 | 5308 ft | 110 kts | 274° |
| 2026-04-27 21:52 | 34.10633 | -118.52504 | 5135 ft | 110 kts | 274° |
| 2026-04-27 21:53 | 34.10684 | -118.53436 | 4985 ft | 111 kts | 275° |
| 2026-04-27 21:53 | 34.10632 | -118.54347 | 4832 ft | 110 kts | 253° |
| 2026-04-27 21:53 | 34.10370 | -118.55209 | 4676 ft | 109 kts | 247° |
| 2026-04-27 21:53 | 34.09991 | -118.56009 | 4558 ft | 112 kts | 240° |
| 2026-04-27 21:54 | 34.09588 | -118.56823 | 4407 ft | 114 kts | 240° |
| 2026-04-27 21:54 | 34.09148 | -118.57601 | 4258 ft | 113 kts | 228° |
| 2026-04-27 21:54 | 34.08585 | -118.58264 | 4090 ft | 112 kts | 227° |
| 2026-04-27 21:54 | 34.08058 | -118.58885 | 3949 ft | 108 kts | 227° |
| 2026-04-27 21:55 | 34.07509 | -118.59515 | 3783 ft | 108 kts | 226° |
| 2026-04-27 21:55 | 34.06978 | -118.60126 | 3634 ft | 103 kts | 226° |
| 2026-04-27 21:55 | 34.06457 | -118.60718 | 3524 ft | 102 kts | 225° |
| 2026-04-27 21:55 | 34.06035 | -118.61372 | 3505 ft | 97 kts | 245° |
| 2026-04-27 21:56 | 34.05700 | -118.62061 | 3501 ft | 94 kts | 242° |
| 2026-04-27 21:56 | 34.05065 | -118.63414 | 3505 ft | 92 kts | 242° |
| 2026-04-27 21:56 | 34.04754 | -118.64092 | 3488 ft | 91 kts | 243° |
| 2026-04-27 21:57 | 34.04451 | -118.64716 | 3509 ft | 90 kts | 243° |
| 2026-04-27 21:57 | 34.04147 | -118.65386 | 3492 ft | 90 kts | 243° |
| 2026-04-27 21:57 | 34.03811 | -118.66076 | 3441 ft | 99 kts | 243° |
| 2026-04-27 21:57 | 34.03476 | -118.66760 | 3436 ft | 91 kts | 243° |
| 2026-04-27 21:58 | 34.03154 | -118.67419 | 3445 ft | 93 kts | 242° |
| 2026-04-27 21:58 | 34.02856 | -118.68089 | 3434 ft | 89 kts | 247° |
| 2026-04-27 21:58 | 34.02623 | -118.68766 | 3420 ft | 87 kts | 250° |
| 2026-04-27 21:58 | 34.02392 | -118.69480 | 3271 ft | 96 kts | 250° |
| 2026-04-27 21:59 | 34.02232 | -118.69985 | 3160 ft | 99 kts | 253° |
| 2026-04-27 21:59 | 34.02017 | -118.70777 | 2980 ft | 99 kts | 254° |
| 2026-04-27 21:59 | 34.01817 | -118.71567 | 2802 ft | 99 kts | 255° |
| 2026-04-27 21:59 | 34.01600 | -118.72358 | 2625 ft | 101 kts | 251° |
| 2026-04-27 22:00 | 34.01334 | -118.73143 | 2453 ft | 101 kts | 249° |
| 2026-04-27 22:00 | 34.01080 | -118.73922 | 2273 ft | 100 kts | 249° |
| 2026-04-27 22:00 | 34.00626 | -118.74872 | 2037 ft | 105 kts | 215° |
| 2026-04-27 22:00 | 34.00156 | -118.75064 | 1913 ft | 105 kts | 202° |
| 2026-04-27 22:01 | 33.99448 | -118.75284 | 1735 ft | 109 kts | 191° |
| 2026-04-27 22:01 | 33.98705 | -118.74944 | 1561 ft | 119 kts | 154° |
| 2026-04-27 22:01 | 33.98001 | -118.74445 | 1367 ft | 116 kts | 158° |
| 2026-04-27 22:01 | 33.97318 | -118.73976 | 1188 ft | 114 kts | 161° |
| 2026-04-27 22:02 | 33.96610 | -118.73531 | 1009 ft | 116 kts | 161° |
| 2026-04-27 22:02 | 33.95904 | -118.73107 | 946 ft | 108 kts | 161° |
| 2026-04-27 22:02 | 33.95271 | -118.72731 | 1067 ft | 97 kts | 162° |
| 2026-04-27 22:02 | 33.94681 | -118.72390 | 1191 ft | 93 kts | 165° |
| 2026-04-27 22:03 | 33.94107 | -118.72059 | 1312 ft | 92 kts | 166° |
| 2026-04-27 22:03 | 33.93531 | -118.71728 | 1446 ft | 92 kts | 167° |
| 2026-04-27 22:03 | 33.92931 | -118.71389 | 1472 ft | 99 kts | 164° |
| 2026-04-27 22:03 | 33.92295 | -118.71027 | 1477 ft | 103 kts | 163° |
| 2026-04-27 22:04 | 33.91643 | -118.70652 | 1481 ft | 105 kts | 163° |
| 2026-04-27 22:04 | 33.90972 | -118.70270 | 1478 ft | 107 kts | 164° |
| 2026-04-27 22:04 | 33.90299 | -118.69884 | 1480 ft | 107 kts | 163° |
| 2026-04-27 22:04 | 33.89628 | -118.69500 | 1479 ft | 106 kts | 163° |
| 2026-04-27 22:05 | 33.88965 | -118.69120 | 1482 ft | 105 kts | 163° |
| 2026-04-27 22:05 | 33.88295 | -118.68737 | 1482 ft | 107 kts | 164° |
| 2026-04-27 22:05 | 33.87624 | -118.68353 | 1483 ft | 106 kts | 165° |
| 2026-04-27 22:05 | 33.86963 | -118.67974 | 1484 ft | 104 kts | 163° |
| 2026-04-27 22:06 | 33.86295 | -118.67595 | 1488 ft | 108 kts | 163° |
| 2026-04-27 22:06 | 33.85615 | -118.67206 | 1481 ft | 109 kts | 165° |
| 2026-04-27 22:06 | 33.84940 | -118.66819 | 1487 ft | 107 kts | 166° |
| 2026-04-27 22:06 | 33.84254 | -118.66429 | 1483 ft | 109 kts | 163° |
| 2026-04-27 22:07 | 33.83577 | -118.66041 | 1480 ft | 108 kts | 163° |
| 2026-04-27 22:07 | 33.82902 | -118.65655 | 1480 ft | 106 kts | 166° |
| 2026-04-27 22:07 | 33.82227 | -118.65271 | 1487 ft | 109 kts | 166° |
| 2026-04-27 22:07 | 33.81550 | -118.64885 | 1485 ft | 110 kts | 164° |
| 2026-04-27 22:08 | 33.80854 | -118.64487 | 1481 ft | 109 kts | 163° |
| 2026-04-27 22:08 | 33.80171 | -118.64096 | 1483 ft | 106 kts | 166° |
| 2026-04-27 22:08 | 33.79513 | -118.63721 | 1485 ft | 106 kts | 164° |
| 2026-04-27 22:08 | 33.78840 | -118.63338 | 1483 ft | 107 kts | 163° |
| 2026-04-27 22:09 | 33.78170 | -118.62957 | 1481 ft | 106 kts | 165° |
| 2026-04-27 22:09 | 33.77498 | -118.62578 | 1481 ft | 106 kts | 164° |
| 2026-04-27 22:09 | 33.76840 | -118.62203 | 1482 ft | 104 kts | 165° |
| 2026-04-27 22:09 | 33.76186 | -118.61831 | 1479 ft | 104 kts | 166° |
| 2026-04-27 22:10 | 33.75525 | -118.61454 | 1480 ft | 105 kts | 164° |
| 2026-04-27 22:10 | 33.74871 | -118.61081 | 1485 ft | 103 kts | 164° |
| 2026-04-27 22:10 | 33.74266 | -118.60731 | 1653 ft | 91 kts | 165° |
| 2026-04-27 22:10 | 33.73715 | -118.60415 | 1816 ft | 86 kts | 165° |
| 2026-04-27 22:11 | 33.73170 | -118.60106 | 1973 ft | 88 kts | 164° |
| 2026-04-27 22:11 | 33.72614 | -118.59790 | 2126 ft | 89 kts | 164° |
| 2026-04-27 22:11 | 33.72044 | -118.59467 | 2278 ft | 92 kts | 165° |
| 2026-04-27 22:11 | 33.71461 | -118.59136 | 2432 ft | 93 kts | 162° |
| 2026-04-27 22:12 | 33.70872 | -118.58800 | 2592 ft | 95 kts | 163° |
| 2026-04-27 22:12 | 33.70274 | -118.58461 | 2746 ft | 95 kts | 163° |
| 2026-04-27 22:12 | 33.69677 | -118.58120 | 2908 ft | 95 kts | 164° |
| 2026-04-27 22:12 | 33.69085 | -118.57782 | 3044 ft | 93 kts | 165° |
| 2026-04-27 22:13 | 33.68506 | -118.57452 | 3202 ft | 91 kts | 165° |
| 2026-04-27 22:13 | 33.67931 | -118.57126 | 3354 ft | 92 kts | 163° |
| 2026-04-27 22:13 | 33.67350 | -118.56796 | 3490 ft | 94 kts | 164° |
| 2026-04-27 22:13 | 33.66718 | -118.56441 | 3499 ft | 104 kts | 164° |
| 2026-04-27 22:14 | 33.66050 | -118.56063 | 3502 ft | 107 kts | 163° |
| 2026-04-27 22:14 | 33.65366 | -118.55674 | 3501 ft | 110 kts | 162° |
| 2026-04-27 22:14 | 33.64667 | -118.55277 | 3501 ft | 112 kts | 163° |
| 2026-04-27 22:14 | 33.63969 | -118.54879 | 3502 ft | 110 kts | 163° |
| 2026-04-27 22:15 | 33.63280 | -118.54486 | 3500 ft | 109 kts | 162° |
| 2026-04-27 22:15 | 33.62588 | -118.54093 | 3500 ft | 111 kts | 162° |
| 2026-04-27 22:15 | 33.61896 | -118.53701 | 3505 ft | 112 kts | 162° |
| 2026-04-27 22:15 | 33.61189 | -118.53298 | 3504 ft | 110 kts | 162° |
| 2026-04-27 22:16 | 33.60658 | -118.52996 | 3503 ft | 111 kts | 162° |
| 2026-04-27 22:16 | 33.60058 | -118.52657 | 3506 ft | 112 kts | 163° |
| 2026-04-27 22:16 | 33.59351 | -118.52256 | 3506 ft | 114 kts | 162° |
| 2026-04-27 22:16 | 33.58633 | -118.51848 | 3506 ft | 114 kts | 161° |
| 2026-04-27 22:17 | 33.57913 | -118.51440 | 3506 ft | 114 kts | 162° |
| 2026-04-27 22:17 | 33.57200 | -118.51034 | 3505 ft | 113 kts | 162° |
| 2026-04-27 22:17 | 33.56487 | -118.50630 | 3509 ft | 113 kts | 163° |
| 2026-04-27 22:17 | 33.55776 | -118.50226 | 3509 ft | 113 kts | 163° |
| 2026-04-27 22:18 | 33.55092 | -118.49768 | 3506 ft | 116 kts | 142° |
| 2026-04-27 22:18 | 33.54541 | -118.49050 | 3506 ft | 117 kts | 139° |
| 2026-04-27 22:18 | 33.53981 | -118.48330 | 3505 ft | 118 kts | 138° |
| 2026-04-27 22:18 | 33.53426 | -118.47603 | 3505 ft | 118 kts | 138° |
| 2026-04-27 22:19 | 33.52878 | -118.46882 | 3509 ft | 117 kts | 138° |
| 2026-04-27 22:19 | 33.52329 | -118.46164 | 3508 ft | 117 kts | 139° |
| 2026-04-27 22:19 | 33.51770 | -118.45453 | 3505 ft | 116 kts | 144° |
| 2026-04-27 22:19 | 33.51169 | -118.44813 | 3506 ft | 115 kts | 145° |
| 2026-04-27 22:20 | 33.50565 | -118.44179 | 3508 ft | 116 kts | 146° |
| 2026-04-27 22:20 | 33.49963 | -118.43552 | 3506 ft | 116 kts | 146° |
| 2026-04-27 22:20 | 33.49359 | -118.42913 | 3507 ft | 116 kts | 144° |
| 2026-04-27 22:20 | 33.48747 | -118.42280 | 3506 ft | 116 kts | 146° |
| 2026-04-27 22:21 | 33.48159 | -118.41664 | 3502 ft | 109 kts | 146° |
| 2026-04-27 22:21 | 33.47599 | -118.41064 | 3500 ft | 108 kts | 145° |
| 2026-04-27 22:21 | 33.47028 | -118.40460 | 3422 ft | 113 kts | 146° |
| 2026-04-27 22:21 | 33.46456 | -118.39847 | 3296 ft | 107 kts | 146° |
| 2026-04-27 22:22 | 33.45923 | -118.39265 | 3161 ft | 102 kts | 146° |
| 2026-04-27 22:22 | 33.45373 | -118.38769 | 3023 ft | 93 kts | 175° |
| 2026-04-27 22:22 | 33.44771 | -118.38798 | 2894 ft | 85 kts | 197° |
| 2026-04-27 22:22 | 33.44196 | -118.38870 | 2804 ft | 81 kts | 198° |
| 2026-04-27 22:23 | 33.43645 | -118.38958 | 2711 ft | 80 kts | 202° |
| 2026-04-27 22:23 | 33.43116 | -118.39085 | 2651 ft | 76 kts | 205° |
| 2026-04-27 22:23 | 33.42602 | -118.39231 | 2534 ft | 76 kts | 207° |
| 2026-04-27 22:23 | 33.42100 | -118.39423 | 2358 ft | 75 kts | 213° |
| 2026-04-27 22:24 | 33.41693 | -118.39695 | 2142 ft | 63 kts | 228° |
| 2026-04-27 22:24 | 33.41389 | -118.40043 | 1944 ft | 56 kts | 242° |
| 2026-04-27 22:24 | 33.41179 | -118.40414 | 1848 ft | 51 kts | 245° |
| 2026-04-27 22:24 | 33.40985 | -118.40753 | 1649 ft | 48 kts | 242° |
| 2026-04-27 22:25 | 33.40793 | -118.41076 | 1570 ft | 46 kts | 242° |
| 2026-04-27 22:25 | 33.40642 | -118.41337 | 1563 ft | 29 kts | 234° |
| 2026-04-27 22:25 | 33.40570 | -118.41459 | 1574 ft | 10 kts | 235° |
| 2026-04-27 22:25 | 33.40524 | -118.41523 | 1578 ft | 10 kts | 190° |
| 2026-04-27 22:26 | 33.40456 | -118.41505 | 1581 ft | 11 kts | 172° |
| 2026-04-27 22:26 | 33.40396 | -118.41493 | 1587 ft | 6 kts | 179° |
| 2026-04-27 22:26 | 33.40354 | -118.41506 | 1589 ft | 0 kts | 235° |
| 2026-04-27 22:36 | 33.40353 | -118.41511 | 1589 ft | 4 kts | 262° |
| 2026-04-27 22:36 | 33.40415 | -118.41507 | 1585 ft | 15 kts | 12° |
| 2026-04-27 22:37 | 33.40521 | -118.41476 | 1577 ft | 19 kts | 51° |
| 2026-04-27 22:37 | 33.40538 | -118.41448 | 1574 ft | 0 kts | 60° |
| 2026-04-27 22:37 | 33.40541 | -118.41441 | 1574 ft | 6 kts | 65° |
| 2026-04-27 22:38 | 33.40559 | -118.41405 | 1571 ft | 7 kts | 46° |
| 2026-04-27 22:38 | 33.40625 | -118.41300 | 1562 ft | 21 kts | 55° |
| 2026-04-27 22:38 | 33.40710 | -118.41157 | 1550 ft | 11 kts | 54° |
| 2026-04-27 22:38 | 33.40744 | -118.41158 | 1549 ft | 4 kts | 278° |
| 2026-04-27 22:39 | 33.40733 | -118.41187 | 1549 ft | 15 kts | 235° |
| 2026-04-27 22:39 | 33.40586 | -118.41445 | 1581 ft | 56 kts | 235° |
| 2026-04-27 22:39 | 33.40375 | -118.41825 | 1810 ft | 53 kts | 249° |
| 2026-04-27 22:39 | 33.40197 | -118.42188 | 2081 ft | 55 kts | 255° |
| 2026-04-27 22:40 | 33.39938 | -118.42497 | 2494 ft | 64 kts | 214° |
| 2026-04-27 22:40 | 33.39476 | -118.42544 | 2888 ft | 72 kts | 168° |
| 2026-04-27 22:40 | 33.39062 | -118.42229 | 3193 ft | 64 kts | 181° |
| 2026-04-27 22:40 | 33.38763 | -118.41873 | 3431 ft | 71 kts | 102° |
| 2026-04-27 22:41 | 33.38532 | -118.41340 | 3597 ft | 79 kts | 123° |
| 2026-04-27 22:41 | 33.38222 | -118.40686 | 3748 ft | 96 kts | 124° |
| 2026-04-27 22:41 | 33.38145 | -118.39902 | 3925 ft | 101 kts | 92° |
| 2026-04-27 22:41 | 33.38265 | -118.39108 | 4097 ft | 96 kts | 70° |
| 2026-04-27 22:42 | 33.38447 | -118.38334 | 4263 ft | 99 kts | 71° |
| 2026-04-27 22:42 | 33.38622 | -118.37510 | 4395 ft | 111 kts | 70° |
| 2026-04-27 22:42 | 33.38832 | -118.36564 | 4440 ft | 120 kts | 72° |
| 2026-04-27 22:42 | 33.39028 | -118.35600 | 4479 ft | 121 kts | 82° |
| 2026-04-27 22:43 | 33.39076 | -118.34593 | 4524 ft | 119 kts | 85° |
| 2026-04-27 22:43 | 33.39121 | -118.33647 | 4701 ft | 110 kts | 85° |
| 2026-04-27 22:43 | 33.39161 | -118.32763 | 4871 ft | 106 kts | 85° |
| 2026-04-27 22:43 | 33.39199 | -118.31893 | 5040 ft | 104 kts | 85° |
| 2026-04-27 22:44 | 33.39244 | -118.31044 | 5204 ft | 101 kts | 85° |
| 2026-04-27 22:44 | 33.39298 | -118.30212 | 5378 ft | 99 kts | 72° |
| 2026-04-27 22:44 | 33.39749 | -118.29796 | 5543 ft | 77 kts | 346° |
| 2026-04-27 22:44 | 33.40294 | -118.29748 | 5695 ft | 80 kts | 352° |
| 2026-04-27 22:45 | 33.40856 | -118.29694 | 5827 ft | 82 kts | 351° |
| 2026-04-27 22:45 | 33.41435 | -118.29638 | 5962 ft | 85 kts | 351° |
| 2026-04-27 22:45 | 33.42030 | -118.29585 | 6097 ft | 86 kts | 351° |
| 2026-04-27 22:45 | 33.42628 | -118.29533 | 6228 ft | 86 kts | 351° |
| 2026-04-27 22:46 | 33.43224 | -118.29483 | 6359 ft | 86 kts | 351° |
| 2026-04-27 22:46 | 33.43825 | -118.29433 | 6474 ft | 89 kts | 351° |
| 2026-04-27 22:46 | 33.44492 | -118.29327 | 6483 ft | 101 kts | 4° |
| 2026-04-27 22:46 | 33.45099 | -118.28890 | 6577 ft | 109 kts | 39° |
| 2026-04-27 22:47 | 33.45497 | -118.28026 | 6270 ft | 137 kts | 55° |
| 2026-04-27 22:47 | 33.46227 | -118.27283 | 5588 ft | 140 kts | 9° |
| 2026-04-27 22:47 | 33.47045 | -118.27201 | 5701 ft | 101 kts | 352° |
| 2026-04-27 22:47 | 33.47730 | -118.27144 | 5793 ft | 94 kts | 351° |
| 2026-04-27 22:48 | 33.48354 | -118.27107 | 5974 ft | 86 kts | 351° |
| 2026-04-27 22:48 | 33.48931 | -118.27052 | 6162 ft | 81 kts | 351° |
| 2026-04-27 22:48 | 33.49481 | -118.26992 | 6353 ft | 77 kts | 351° |
| 2026-04-27 22:48 | 33.50001 | -118.26927 | 6533 ft | 75 kts | 351° |
| 2026-04-27 22:49 | 33.50526 | -118.26861 | 6671 ft | 76 kts | 351° |
| 2026-04-27 22:49 | 33.51061 | -118.26796 | 6817 ft | 78 kts | 351° |
| 2026-04-27 22:49 | 33.51607 | -118.26730 | 6961 ft | 79 kts | 351° |
| 2026-04-27 22:49 | 33.52159 | -118.26665 | 7101 ft | 81 kts | 351° |
| 2026-04-27 22:50 | 33.52631 | -118.26817 | 7221 ft | 66 kts | 289° |
| 2026-04-27 22:50 | 33.52578 | -118.27344 | 7360 ft | 65 kts | 267° |
| 2026-04-27 22:50 | 33.52540 | -118.27877 | 7488 ft | 66 kts | 266° |
| 2026-04-27 22:50 | 33.52496 | -118.28424 | 7614 ft | 66 kts | 266° |
| 2026-04-27 22:51 | 33.52452 | -118.28973 | 7743 ft | 66 kts | 266° |
| 2026-04-27 22:51 | 33.52409 | -118.29523 | 7868 ft | 66 kts | 266° |
| 2026-04-27 22:51 | 33.52365 | -118.30069 | 7994 ft | 65 kts | 266° |
| 2026-04-27 22:51 | 33.52320 | -118.30609 | 8118 ft | 65 kts | 266° |
| 2026-04-27 22:52 | 33.52286 | -118.31148 | 8244 ft | 65 kts | 277° |
| 2026-04-27 22:52 | 33.52688 | -118.31406 | 8374 ft | 81 kts | 345° |
| 2026-04-27 22:52 | 33.53066 | -118.31426 | 8462 ft | 80 kts | 342° |
| 2026-04-27 22:52 | 33.53627 | -118.31447 | 8587 ft | 81 kts | 343° |
| 2026-04-27 22:53 | 33.54183 | -118.31466 | 8715 ft | 81 kts | 343° |
| 2026-04-27 22:53 | 33.54754 | -118.31487 | 8825 ft | 81 kts | 339° |
| 2026-04-27 22:53 | 33.55009 | -118.31880 | 8945 ft | 65 kts | 256° |
| 2026-04-27 22:53 | 33.54945 | -118.32407 | 9045 ft | 65 kts | 268° |
| 2026-04-27 22:54 | 33.54915 | -118.32950 | 9155 ft | 66 kts | 267° |
| 2026-04-27 22:54 | 33.54884 | -118.33498 | 9263 ft | 66 kts | 267° |
| 2026-04-27 22:54 | 33.54854 | -118.34051 | 9366 ft | 67 kts | 267° |
| 2026-04-27 22:54 | 33.54823 | -118.34606 | 9473 ft | 67 kts | 267° |
| 2026-04-27 22:55 | 33.54792 | -118.35160 | 9577 ft | 67 kts | 267° |
| 2026-04-27 22:55 | 33.54760 | -118.35709 | 9685 ft | 66 kts | 267° |
| 2026-04-27 22:55 | 33.54730 | -118.36255 | 9790 ft | 66 kts | 267° |
| 2026-04-27 22:55 | 33.54699 | -118.36802 | 9895 ft | 66 kts | 267° |
| 2026-04-27 22:56 | 33.54669 | -118.37345 | 9997 ft | 65 kts | 267° |
| 2026-04-27 22:56 | 33.54937 | -118.37734 | 10092 ft | 82 kts | 343° |
| 2026-04-27 22:56 | 33.55527 | -118.37659 | 10193 ft | 85 kts | 349° |
| 2026-04-27 22:56 | 33.56118 | -118.37598 | 10270 ft | 87 kts | 349° |
| 2026-04-27 22:57 | 33.56735 | -118.37540 | 10325 ft | 91 kts | 349° |
| 2026-04-27 22:57 | 33.57372 | -118.37485 | 10373 ft | 93 kts | 349° |
| 2026-04-27 22:57 | 33.58019 | -118.37432 | 10438 ft | 93 kts | 349° |
| 2026-04-27 22:57 | 33.58652 | -118.37374 | 10533 ft | 90 kts | 349° |
| 2026-04-27 22:58 | 33.59267 | -118.37310 | 10624 ft | 88 kts | 349° |
| 2026-04-27 22:58 | 33.59875 | -118.37230 | 10721 ft | 88 kts | 351° |
| 2026-04-27 22:58 | 33.60478 | -118.37137 | 10810 ft | 87 kts | 351° |
| 2026-04-27 22:58 | 33.61081 | -118.37040 | 10905 ft | 87 kts | 351° |
| 2026-04-27 22:59 | 33.61683 | -118.36943 | 10993 ft | 88 kts | 351° |
| 2026-04-27 22:59 | 33.62292 | -118.36845 | 11069 ft | 89 kts | 351° |
| 2026-04-27 22:59 | 33.62906 | -118.36749 | 11145 ft | 89 kts | 351° |
| 2026-04-27 22:59 | 33.63516 | -118.36651 | 11220 ft | 88 kts | 351° |
| 2026-04-27 23:00 | 33.64731 | -118.36454 | 11370 ft | 88 kts | 351° |
| 2026-04-27 23:00 | 33.65337 | -118.36357 | 11442 ft | 88 kts | 351° |
| 2026-04-27 23:00 | 33.65941 | -118.36259 | 11520 ft | 87 kts | 351° |
| 2026-04-27 23:01 | 33.66542 | -118.36160 | 11591 ft | 87 kts | 351° |
| 2026-04-27 23:01 | 33.67149 | -118.36062 | 11644 ft | 89 kts | 351° |
| 2026-04-27 23:01 | 33.67768 | -118.35967 | 11697 ft | 90 kts | 351° |
| 2026-04-27 23:01 | 33.68391 | -118.35873 | 11750 ft | 91 kts | 351° |
| 2026-04-27 23:02 | 33.69017 | -118.35780 | 11802 ft | 91 kts | 351° |
| 2026-04-27 23:02 | 33.69646 | -118.35686 | 11860 ft | 91 kts | 351° |
| 2026-04-27 23:02 | 33.70277 | -118.35592 | 11910 ft | 91 kts | 351° |
| 2026-04-27 23:02 | 33.70910 | -118.35502 | 11962 ft | 92 kts | 351° |
| 2026-04-27 23:03 | 33.71542 | -118.35413 | 12016 ft | 92 kts | 351° |
| 2026-04-27 23:03 | 33.72176 | -118.35324 | 12063 ft | 92 kts | 351° |
| 2026-04-27 23:03 | 33.72809 | -118.35230 | 12115 ft | 92 kts | 351° |
| 2026-04-27 23:03 | 33.73448 | -118.35139 | 12162 ft | 93 kts | 351° |
| 2026-04-27 23:04 | 33.74093 | -118.35050 | 12220 ft | 94 kts | 351° |
| 2026-04-27 23:04 | 33.74745 | -118.34964 | 12272 ft | 94 kts | 351° |
| 2026-04-27 23:04 | 33.75400 | -118.34880 | 12325 ft | 95 kts | 351° |
| 2026-04-27 23:04 | 33.76050 | -118.34795 | 12373 ft | 93 kts | 352° |
| 2026-04-27 23:05 | 33.76688 | -118.34707 | 12424 ft | 92 kts | 352° |
| 2026-04-27 23:05 | 33.77318 | -118.34617 | 12472 ft | 91 kts | 351° |
| 2026-04-27 23:05 | 33.77949 | -118.34524 | 12520 ft | 91 kts | 352° |
| 2026-04-27 23:05 | 33.78577 | -118.34431 | 12571 ft | 91 kts | 352° |
| 2026-04-27 23:06 | 33.79199 | -118.34343 | 12628 ft | 90 kts | 351° |
| 2026-04-27 23:06 | 33.79819 | -118.34252 | 12669 ft | 90 kts | 351° |
| 2026-04-27 23:06 | 33.80440 | -118.34160 | 12720 ft | 90 kts | 351° |
| 2026-04-27 23:06 | 33.81064 | -118.34064 | 12775 ft | 90 kts | 351° |
| 2026-04-27 23:07 | 33.81687 | -118.33970 | 12825 ft | 90 kts | 351° |
| 2026-04-27 23:07 | 33.82312 | -118.33875 | 12877 ft | 90 kts | 352° |
| 2026-04-27 23:07 | 33.82940 | -118.33663 | 12927 ft | 95 kts | 2° |
| 2026-04-27 23:07 | 33.83568 | -118.33419 | 12975 ft | 95 kts | 2° |
| 2026-04-27 23:08 | 33.84195 | -118.33174 | 13032 ft | 95 kts | 2° |
| 2026-04-27 23:08 | 33.84822 | -118.32926 | 13081 ft | 95 kts | 2° |
| 2026-04-27 23:08 | 33.85448 | -118.32682 | 13135 ft | 95 kts | 2° |
| 2026-04-27 23:08 | 33.86055 | -118.32362 | 13185 ft | 107 kts | 33° |
| 2026-04-27 23:09 | 33.86274 | -118.31467 | 13219 ft | 117 kts | 82° |
| 2026-04-27 23:09 | 33.86366 | -118.30486 | 13271 ft | 116 kts | 80° |
| 2026-04-27 23:09 | 33.86456 | -118.29518 | 13326 ft | 116 kts | 80° |
| 2026-04-27 23:09 | 33.86538 | -118.28561 | 13378 ft | 117 kts | 83° |
| 2026-04-27 23:10 | 33.86593 | -118.27583 | 13432 ft | 117 kts | 83° |
| 2026-04-27 23:10 | 33.86650 | -118.26601 | 13463 ft | 120 kts | 83° |
| 2026-04-27 23:10 | 33.86711 | -118.25585 | 13472 ft | 123 kts | 83° |
| 2026-04-27 23:10 | 33.86738 | -118.24544 | 13478 ft | 125 kts | 88° |
| 2026-04-27 23:11 | 33.86714 | -118.23489 | 13466 ft | 126 kts | 91° |
| 2026-04-27 23:11 | 33.86681 | -118.22434 | 13469 ft | 126 kts | 91° |
| 2026-04-27 23:11 | 33.86646 | -118.21377 | 13470 ft | 126 kts | 91° |
| 2026-04-27 23:11 | 33.86610 | -118.20319 | 13473 ft | 127 kts | 91° |
| 2026-04-27 23:12 | 33.86576 | -118.19258 | 13467 ft | 127 kts | 91° |
| 2026-04-27 23:12 | 33.86542 | -118.18196 | 13466 ft | 127 kts | 91° |
| 2026-04-27 23:12 | 33.86506 | -118.17132 | 13469 ft | 128 kts | 91° |
| 2026-04-27 23:12 | 33.86470 | -118.16057 | 13469 ft | 128 kts | 91° |
| 2026-04-27 23:13 | 33.86434 | -118.14984 | 13469 ft | 128 kts | 91° |
| 2026-04-27 23:13 | 33.86398 | -118.13909 | 13470 ft | 129 kts | 91° |
| 2026-04-27 23:13 | 33.86363 | -118.12829 | 13466 ft | 129 kts | 91° |
| 2026-04-27 23:13 | 33.86326 | -118.11748 | 13468 ft | 129 kts | 91° |
| 2026-04-27 23:14 | 33.86287 | -118.10672 | 13468 ft | 129 kts | 91° |
| 2026-04-27 23:14 | 33.86250 | -118.09601 | 13464 ft | 128 kts | 91° |
| 2026-04-27 23:14 | 33.86213 | -118.08522 | 13466 ft | 129 kts | 91° |
| 2026-04-27 23:14 | 33.86175 | -118.07434 | 13442 ft | 131 kts | 91° |
| 2026-04-27 23:15 | 33.86136 | -118.06341 | 13460 ft | 130 kts | 91° |
| 2026-04-27 23:15 | 33.86111 | -118.05622 | 13460 ft | 130 kts | 91° |
| 2026-04-27 23:15 | 33.86086 | -118.04894 | 13453 ft | 128 kts | 91° |
| 2026-04-27 23:15 | 33.86049 | -118.03823 | 13454 ft | 128 kts | 91° |
| 2026-04-27 23:16 | 33.86011 | -118.02750 | 13450 ft | 128 kts | 91° |
| 2026-04-27 23:16 | 33.85974 | -118.01677 | 13450 ft | 128 kts | 91° |
| 2026-04-27 23:16 | 33.85936 | -118.00606 | 13449 ft | 128 kts | 91° |
| 2026-04-27 23:16 | 33.85901 | -117.99533 | 13450 ft | 128 kts | 91° |
| 2026-04-27 23:17 | 33.85865 | -117.98459 | 13450 ft | 129 kts | 91° |
| 2026-04-27 23:17 | 33.85827 | -117.97383 | 13447 ft | 129 kts | 91° |
| 2026-04-27 23:17 | 33.85790 | -117.96303 | 13449 ft | 129 kts | 91° |
| 2026-04-27 23:17 | 33.85754 | -117.95223 | 13451 ft | 129 kts | 91° |
| 2026-04-27 23:18 | 33.85717 | -117.94141 | 13452 ft | 130 kts | 91° |
| 2026-04-27 23:18 | 33.85678 | -117.93056 | 13450 ft | 130 kts | 91° |
| 2026-04-27 23:18 | 33.85638 | -117.91969 | 13450 ft | 130 kts | 91° |
| 2026-04-27 23:18 | 33.85599 | -117.90881 | 13447 ft | 130 kts | 91° |
| 2026-04-27 23:19 | 33.85559 | -117.89792 | 13447 ft | 130 kts | 91° |
| 2026-04-27 23:19 | 33.85521 | -117.88720 | 13449 ft | 130 kts | 91° |
| 2026-04-27 23:19 | 33.85485 | -117.87632 | 13445 ft | 130 kts | 91° |
| 2026-04-27 23:19 | 33.85448 | -117.86545 | 13447 ft | 130 kts | 91° |
| 2026-04-27 23:20 | 33.85411 | -117.85457 | 13445 ft | 130 kts | 91° |
| 2026-04-27 23:20 | 33.85374 | -117.84368 | 13447 ft | 131 kts | 91° |
| 2026-04-27 23:20 | 33.85336 | -117.83275 | 13445 ft | 130 kts | 91° |
| 2026-04-27 23:20 | 33.85296 | -117.82185 | 13446 ft | 131 kts | 91° |
| 2026-04-27 23:21 | 33.85255 | -117.81092 | 13446 ft | 131 kts | 91° |
| 2026-04-27 23:21 | 33.85217 | -117.79999 | 13445 ft | 131 kts | 91° |
| 2026-04-27 23:21 | 33.85180 | -117.78902 | 13449 ft | 131 kts | 91° |
| 2026-04-27 23:21 | 33.85142 | -117.77808 | 13454 ft | 131 kts | 91° |
| 2026-04-27 23:22 | 33.85105 | -117.76710 | 13455 ft | 132 kts | 91° |
| 2026-04-27 23:22 | 33.85065 | -117.75609 | 13453 ft | 132 kts | 91° |
| 2026-04-27 23:22 | 33.85024 | -117.74507 | 13455 ft | 132 kts | 91° |
| 2026-04-27 23:22 | 33.84984 | -117.73404 | 13458 ft | 132 kts | 91° |
| 2026-04-27 23:23 | 33.84947 | -117.72300 | 13455 ft | 132 kts | 91° |
| 2026-04-27 23:23 | 33.84912 | -117.71199 | 13453 ft | 131 kts | 91° |
| 2026-04-27 23:23 | 33.84875 | -117.70114 | 13456 ft | 130 kts | 91° |
| 2026-04-27 23:23 | 33.84837 | -117.69014 | 13455 ft | 132 kts | 91° |
| 2026-04-27 23:24 | 33.84799 | -117.67901 | 13455 ft | 134 kts | 91° |
| 2026-04-27 23:24 | 33.84760 | -117.66786 | 13459 ft | 134 kts | 91° |
| 2026-04-27 23:24 | 33.84721 | -117.65663 | 13457 ft | 134 kts | 91° |
| 2026-04-27 23:24 | 33.84682 | -117.64548 | 13453 ft | 133 kts | 91° |
| 2026-04-27 23:25 | 33.84648 | -117.63447 | 13453 ft | 131 kts | 91° |
| 2026-04-27 23:25 | 33.84615 | -117.62363 | 13458 ft | 129 kts | 91° |
| 2026-04-27 23:25 | 33.84577 | -117.61280 | 13452 ft | 129 kts | 91° |
| 2026-04-27 23:25 | 33.84540 | -117.60201 | 13454 ft | 129 kts | 91° |
| 2026-04-27 23:26 | 33.84502 | -117.59121 | 13453 ft | 130 kts | 91° |
| 2026-04-27 23:26 | 33.84464 | -117.58032 | 13454 ft | 131 kts | 91° |
| 2026-04-27 23:26 | 33.84426 | -117.56937 | 13457 ft | 131 kts | 91° |
| 2026-04-27 23:26 | 33.84389 | -117.55842 | 13457 ft | 131 kts | 91° |
| 2026-04-27 23:27 | 33.84352 | -117.54747 | 13455 ft | 131 kts | 91° |
| 2026-04-27 23:27 | 33.84316 | -117.53649 | 13454 ft | 131 kts | 91° |
| 2026-04-27 23:27 | 33.84279 | -117.52563 | 13455 ft | 132 kts | 91° |
| 2026-04-27 23:27 | 33.84241 | -117.51445 | 13451 ft | 132 kts | 91° |
| 2026-04-27 23:28 | 33.84200 | -117.50335 | 13456 ft | 134 kts | 91° |
| 2026-04-27 23:28 | 33.84154 | -117.49253 | 13458 ft | 130 kts | 91° |
| 2026-04-27 23:28 | 33.84110 | -117.48166 | 13457 ft | 130 kts | 91° |
| 2026-04-27 23:28 | 33.84068 | -117.47071 | 13450 ft | 132 kts | 91° |
| 2026-04-27 23:29 | 33.84024 | -117.45972 | 13449 ft | 131 kts | 91° |
| 2026-04-27 23:29 | 33.83981 | -117.44876 | 13446 ft | 131 kts | 91° |
| 2026-04-27 23:29 | 33.83939 | -117.43778 | 13448 ft | 131 kts | 91° |
| 2026-04-27 23:29 | 33.83899 | -117.42680 | 13448 ft | 132 kts | 91° |
| 2026-04-27 23:30 | 33.83859 | -117.41579 | 13445 ft | 132 kts | 91° |
| 2026-04-27 23:30 | 33.83819 | -117.40472 | 13446 ft | 133 kts | 91° |
| 2026-04-27 23:30 | 33.83780 | -117.39362 | 13428 ft | 133 kts | 91° |
| 2026-04-27 23:30 | 33.83742 | -117.38250 | 13431 ft | 133 kts | 91° |
| 2026-04-27 23:31 | 33.83704 | -117.37124 | 13434 ft | 133 kts | 91° |
| 2026-04-27 23:31 | 33.83665 | -117.36010 | 13429 ft | 133 kts | 91° |
| 2026-04-27 23:31 | 33.83628 | -117.34897 | 13432 ft | 133 kts | 91° |
| 2026-04-27 23:31 | 33.83591 | -117.33782 | 13431 ft | 133 kts | 91° |
| 2026-04-27 23:32 | 33.83555 | -117.32668 | 13431 ft | 133 kts | 91° |
| 2026-04-27 23:32 | 33.83519 | -117.31553 | 13429 ft | 134 kts | 91° |
| 2026-04-27 23:32 | 33.83486 | -117.30450 | 13429 ft | 134 kts | 91° |
| 2026-04-27 23:32 | 33.83454 | -117.29331 | 13429 ft | 134 kts | 91° |
| 2026-04-27 23:33 | 33.83420 | -117.28200 | 13430 ft | 134 kts | 91° |
| 2026-04-27 23:33 | 33.83385 | -117.27096 | 13428 ft | 133 kts | 91° |
| 2026-04-27 23:33 | 33.83346 | -117.25968 | 13426 ft | 133 kts | 91° |
| 2026-04-27 23:33 | 33.83308 | -117.24869 | 13426 ft | 133 kts | 91° |
| 2026-04-27 23:34 | 33.83271 | -117.23759 | 13427 ft | 133 kts | 91° |
| 2026-04-27 23:34 | 33.83234 | -117.22647 | 13423 ft | 133 kts | 91° |
| 2026-04-27 23:34 | 33.83200 | -117.21531 | 13427 ft | 134 kts | 91° |
| 2026-04-27 23:34 | 33.83167 | -117.20407 | 13424 ft | 135 kts | 91° |
| 2026-04-27 23:35 | 33.83136 | -117.19283 | 13429 ft | 135 kts | 91° |
| 2026-04-27 23:35 | 33.83106 | -117.18158 | 13426 ft | 135 kts | 91° |
| 2026-04-27 23:35 | 33.83075 | -117.17023 | 13424 ft | 136 kts | 91° |
| 2026-04-27 23:35 | 33.83044 | -117.15911 | 13431 ft | 132 kts | 91° |
| 2026-04-27 23:36 | 33.83014 | -117.14801 | 13429 ft | 133 kts | 91° |
| 2026-04-27 23:36 | 33.82984 | -117.13685 | 13429 ft | 134 kts | 91° |
| 2026-04-27 23:36 | 33.82954 | -117.12560 | 13431 ft | 135 kts | 91° |
| 2026-04-27 23:36 | 33.82924 | -117.11428 | 13447 ft | 136 kts | 91° |
| 2026-04-27 23:37 | 33.82906 | -117.10676 | 13449 ft | 136 kts | 91° |
| 2026-04-27 23:37 | 33.82870 | -117.09157 | 13449 ft | 136 kts | 91° |
| 2026-04-27 23:37 | 33.82851 | -117.08402 | 13449 ft | 137 kts | 91° |
| 2026-04-27 23:37 | 33.82824 | -117.07253 | 13454 ft | 138 kts | 91° |
| 2026-04-27 23:38 | 33.82795 | -117.06106 | 13448 ft | 136 kts | 91° |
| 2026-04-27 23:38 | 33.82778 | -117.04983 | 13447 ft | 134 kts | 90° |
| 2026-04-27 23:38 | 33.82754 | -117.03852 | 13448 ft | 136 kts | 91° |
| 2026-04-27 23:38 | 33.82725 | -117.02714 | 13445 ft | 137 kts | 91° |
| 2026-04-27 23:39 | 33.82695 | -117.01569 | 13451 ft | 137 kts | 91° |
| 2026-04-27 23:39 | 33.82667 | -117.00426 | 13446 ft | 137 kts | 91° |
| 2026-04-27 23:39 | 33.82641 | -116.99283 | 13445 ft | 137 kts | 91° |
| 2026-04-27 23:39 | 33.82613 | -116.98141 | 13446 ft | 137 kts | 91° |
| 2026-04-27 23:40 | 33.82584 | -116.96989 | 13448 ft | 139 kts | 91° |
| 2026-04-27 23:40 | 33.82555 | -116.95821 | 13452 ft | 140 kts | 91° |
| 2026-04-27 23:40 | 33.82524 | -116.94648 | 13452 ft | 140 kts | 90° |
| 2026-04-27 23:40 | 33.82498 | -116.93471 | 13449 ft | 140 kts | 91° |
| 2026-04-27 23:41 | 33.82471 | -116.92305 | 13451 ft | 140 kts | 91° |
| 2026-04-27 23:41 | 33.82451 | -116.91129 | 13443 ft | 139 kts | 90° |
| 2026-04-27 23:41 | 33.82426 | -116.89975 | 13429 ft | 140 kts | 92° |
| 2026-04-27 23:41 | 33.82407 | -116.88829 | 13440 ft | 137 kts | 91° |
| 2026-04-27 23:42 | 33.82383 | -116.87675 | 13437 ft | 138 kts | 91° |
| 2026-04-27 23:42 | 33.82359 | -116.86521 | 13438 ft | 139 kts | 91° |
| 2026-04-27 23:42 | 33.82334 | -116.85344 | 13433 ft | 141 kts | 91° |
| 2026-04-27 23:42 | 33.82311 | -116.84169 | 13432 ft | 140 kts | 91° |
| 2026-04-27 23:43 | 33.82287 | -116.83000 | 13432 ft | 140 kts | 91° |
| 2026-04-27 23:43 | 33.82262 | -116.81832 | 13433 ft | 141 kts | 91° |
| 2026-04-27 23:43 | 33.82239 | -116.80645 | 13428 ft | 142 kts | 91° |
| 2026-04-27 23:43 | 33.82213 | -116.79457 | 13430 ft | 143 kts | 91° |
| 2026-04-27 23:44 | 33.82186 | -116.78257 | 13433 ft | 144 kts | 91° |
| 2026-04-27 23:44 | 33.82161 | -116.77041 | 13380 ft | 147 kts | 91° |
| 2026-04-27 23:44 | 33.82135 | -116.75812 | 13381 ft | 150 kts | 91° |
| 2026-04-27 23:44 | 33.82110 | -116.74586 | 13368 ft | 143 kts | 91° |
| 2026-04-27 23:45 | 33.82083 | -116.73410 | 13362 ft | 141 kts | 91° |
| 2026-04-27 23:45 | 33.82059 | -116.72220 | 13361 ft | 144 kts | 92° |
| 2026-04-27 23:45 | 33.82041 | -116.70992 | 13375 ft | 149 kts | 91° |
| 2026-04-27 23:45 | 33.82019 | -116.69750 | 13369 ft | 146 kts | 92° |
| 2026-04-27 23:46 | 33.82005 | -116.68480 | 13354 ft | 154 kts | 90° |
| 2026-04-27 23:46 | 33.81971 | -116.67249 | 13349 ft | 145 kts | 90° |
| 2026-04-27 23:46 | 33.81928 | -116.66097 | 13350 ft | 135 kts | 91° |
| 2026-04-27 23:46 | 33.81906 | -116.64949 | 13342 ft | 139 kts | 90° |
| 2026-04-27 23:47 | 33.81865 | -116.63829 | 13348 ft | 130 kts | 93° |
| 2026-04-27 23:47 | 33.81814 | -116.62756 | 13343 ft | 126 kts | 92° |
| 2026-04-27 23:47 | 33.81772 | -116.61685 | 13348 ft | 128 kts | 94° |
| 2026-04-27 23:47 | 33.81751 | -116.60591 | 13341 ft | 132 kts | 91° |
| 2026-04-27 23:48 | 33.81735 | -116.59496 | 13343 ft | 133 kts | 91° |
| 2026-04-27 23:48 | 33.81718 | -116.58369 | 13345 ft | 133 kts | 91° |
| 2026-04-27 23:48 | 33.81704 | -116.57290 | 13343 ft | 129 kts | 91° |
| 2026-04-27 23:48 | 33.81690 | -116.56230 | 13341 ft | 121 kts | 91° |
| 2026-04-27 23:49 | 33.81680 | -116.55235 | 13343 ft | 120 kts | 90° |
| 2026-04-27 23:49 | 33.81662 | -116.54196 | 13342 ft | 128 kts | 91° |
| 2026-04-27 23:49 | 33.81641 | -116.53113 | 13351 ft | 131 kts | 91° |
| 2026-04-27 23:49 | 33.81622 | -116.52005 | 13355 ft | 134 kts | 91° |
| 2026-04-27 23:50 | 33.81603 | -116.50880 | 13361 ft | 135 kts | 91° |
| 2026-04-27 23:50 | 33.81583 | -116.49743 | 13358 ft | 136 kts | 91° |
| 2026-04-27 23:50 | 33.81564 | -116.48602 | 13359 ft | 137 kts | 91° |
| 2026-04-27 23:50 | 33.81544 | -116.47458 | 13360 ft | 137 kts | 91° |
| 2026-04-27 23:51 | 33.81527 | -116.46313 | 13362 ft | 137 kts | 91° |
| 2026-04-27 23:51 | 33.81510 | -116.45165 | 13355 ft | 137 kts | 91° |
| 2026-04-27 23:51 | 33.81592 | -116.44035 | 13350 ft | 133 kts | 57° |
| 2026-04-27 23:51 | 33.82229 | -116.43411 | 13202 ft | 117 kts | 0° |
| 2026-04-27 23:52 | 33.83003 | -116.42924 | 12984 ft | 135 kts | 23° |
| 2026-04-27 23:52 | 33.83674 | -116.42061 | 12767 ft | 145 kts | 43° |
| 2026-04-27 23:52 | 33.84283 | -116.41085 | 12541 ft | 146 kts | 44° |
| 2026-04-27 23:52 | 33.84883 | -116.40120 | 12321 ft | 145 kts | 44° |
| 2026-04-27 23:53 | 33.85490 | -116.39149 | 12093 ft | 144 kts | 44° |
| 2026-04-27 23:53 | 33.86087 | -116.38191 | 11867 ft | 143 kts | 45° |
| 2026-04-27 23:53 | 33.86686 | -116.37233 | 11647 ft | 144 kts | 45° |
| 2026-04-27 23:53 | 33.87285 | -116.36272 | 11424 ft | 143 kts | 45° |
| 2026-04-27 23:54 | 33.87877 | -116.35322 | 11205 ft | 141 kts | 45° |
| 2026-04-27 23:54 | 33.88465 | -116.34381 | 10984 ft | 140 kts | 46° |
| 2026-04-27 23:54 | 33.89049 | -116.33445 | 10767 ft | 140 kts | 46° |
| 2026-04-27 23:54 | 33.89629 | -116.32514 | 10549 ft | 138 kts | 46° |
| 2026-04-27 23:55 | 33.90202 | -116.31594 | 10330 ft | 137 kts | 47° |
| 2026-04-27 23:55 | 33.90773 | -116.30678 | 10120 ft | 136 kts | 47° |
| 2026-04-27 23:55 | 33.91343 | -116.29766 | 9912 ft | 137 kts | 47° |
| 2026-04-27 23:55 | 33.91911 | -116.28852 | 9684 ft | 136 kts | 48° |
| 2026-04-27 23:56 | 33.92471 | -116.27951 | 9452 ft | 135 kts | 47° |
| 2026-04-27 23:56 | 33.93018 | -116.27073 | 9322 ft | 132 kts | 48° |
| 2026-04-27 23:56 | 33.93563 | -116.26200 | 9182 ft | 128 kts | 47° |
| 2026-04-27 23:56 | 33.94085 | -116.25360 | 9053 ft | 123 kts | 46° |
| 2026-04-27 23:57 | 33.94608 | -116.24523 | 8919 ft | 127 kts | 47° |
| 2026-04-27 23:57 | 33.95137 | -116.23670 | 8797 ft | 128 kts | 48° |
| 2026-04-27 23:57 | 33.95673 | -116.22809 | 8669 ft | 129 kts | 49° |
| 2026-04-27 23:57 | 33.96211 | -116.21944 | 8534 ft | 128 kts | 50° |
| 2026-04-27 23:58 | 33.96738 | -116.21096 | 8411 ft | 126 kts | 48° |
| 2026-04-27 23:58 | 33.97262 | -116.20253 | 8285 ft | 125 kts | 48° |
| 2026-04-27 23:58 | 33.97781 | -116.19417 | 8156 ft | 124 kts | 47° |
| 2026-04-27 23:58 | 33.98298 | -116.18586 | 8036 ft | 125 kts | 48° |
| 2026-04-27 23:59 | 33.98824 | -116.17740 | 7928 ft | 127 kts | 48° |
| 2026-04-27 23:59 | 33.99349 | -116.16892 | 7789 ft | 125 kts | 49° |
| 2026-04-27 23:59 | 33.99869 | -116.16055 | 7672 ft | 125 kts | 48° |
| 2026-04-27 23:59 | 34.00392 | -116.15213 | 7544 ft | 125 kts | 49° |
| 2026-04-28 00:00 | 34.00912 | -116.14374 | 7425 ft | 125 kts | 49° |
| 2026-04-28 00:00 | 34.01432 | -116.13533 | 7302 ft | 125 kts | 50° |
| 2026-04-28 00:00 | 34.01951 | -116.12699 | 7174 ft | 125 kts | 49° |
| 2026-04-28 00:00 | 34.02466 | -116.11868 | 7054 ft | 123 kts | 48° |
| 2026-04-28 00:01 | 34.02980 | -116.11038 | 6940 ft | 124 kts | 50° |
| 2026-04-28 00:01 | 34.03493 | -116.10211 | 6811 ft | 123 kts | 50° |
| 2026-04-28 00:01 | 34.04008 | -116.09380 | 6693 ft | 123 kts | 49° |
| 2026-04-28 00:01 | 34.04520 | -116.08552 | 6575 ft | 124 kts | 49° |
| 2026-04-28 00:02 | 34.05036 | -116.07719 | 6454 ft | 125 kts | 50° |
| 2026-04-28 00:02 | 34.05556 | -116.06878 | 6346 ft | 126 kts | 52° |
| 2026-04-28 00:02 | 34.06078 | -116.06036 | 6218 ft | 125 kts | 50° |
| 2026-04-28 00:02 | 34.06593 | -116.05204 | 6075 ft | 121 kts | 50° |
| 2026-04-28 00:03 | 34.07097 | -116.04391 | 5950 ft | 120 kts | 51° |
| 2026-04-28 00:03 | 34.07593 | -116.03586 | 5824 ft | 120 kts | 51° |
| 2026-04-28 00:03 | 34.08095 | -116.02778 | 5698 ft | 121 kts | 50° |
| 2026-04-28 00:03 | 34.08603 | -116.01955 | 5582 ft | 123 kts | 50° |
| 2026-04-28 00:04 | 34.09097 | -116.01146 | 5438 ft | 111 kts | 52° |
| 2026-04-28 00:04 | 34.10132 | -115.99836 | 4752 ft | 108 kts | 40° |
| 2026-04-28 00:04 | 34.10649 | -115.99188 | 4406 ft | 104 kts | 40° |
| 2026-04-28 00:05 | 34.11146 | -115.98587 | 4101 ft | 100 kts | 40° |
| 2026-04-28 00:05 | 34.11610 | -115.97977 | 3824 ft | 96 kts | 44° |
| 2026-04-28 00:05 | 34.12043 | -115.97424 | 3557 ft | 85 kts | 41° |
| 2026-04-28 00:05 | 34.12480 | -115.97046 | 3184 ft | 76 kts | 6° |
| 2026-04-28 00:06 | 34.12968 | -115.96861 | 2718 ft | 76 kts | 36° |
| 2026-04-28 00:06 | 34.13267 | -115.96332 | 2261 ft | 73 kts | 62° |
| 2026-04-28 00:06 | 34.13408 | -115.95780 | 2052 ft | 68 kts | 78° |
| 2026-04-28 00:06 | 34.13436 | -115.95245 | 1905 ft | 55 kts | 89° |
| 2026-04-28 00:07 | 34.13440 | -115.94851 | 1882 ft | 36 kts | 90° |
| 2026-04-28 00:07 | 34.13471 | -115.94738 | 1879 ft | 9 kts | 6° |
| 2026-04-28 00:07 | 34.13521 | -115.94705 | 1879 ft | 11 kts | 87° |
| 2026-04-28 00:07 | 34.13524 | -115.94583 | 1873 ft | 18 kts | 90° |
| 2026-04-28 00:08 | 34.13553 | -115.94493 | 1869 ft | 9 kts | 327° |
| 2026-04-28 00:08 | 34.13546 | -115.94527 | 1871 ft | 2 kts | 184° |
| 2026-04-28 00:08 | 34.13541 | -115.94528 | 1870 ft | 1 kts | 183° |
| 2026-04-28 00:08 | 34.13540 | -115.94528 | 1870 ft | 0 kts | 183° |